Time;durP1;ratioP1;P1;durP2;ratioP2;P2;SDS_P1;SDS_P2;PMS_P1;PMS_P2;Temp;Humidity;BMP_temperature;BMP_pressure;BME280_temperature;BME280_humidity;BME280_pressure;Samples;Min_cycle;Max_cycle;Signal;HPM_P1;HPM_P2
2023/06/30 00:02:26;;;;;;;12.40;11.20;;;24.30;93.10;;;;;;5025750;28;20462;-77
2023/06/30 00:04:52;;;;;;;12.53;11.23;;;24.30;93.10;;;;;;5025986;28;20455;-77
2023/06/30 00:07:21;;;;;;;14.30;12.30;;;24.30;93.10;;;;;;5026559;28;20453;-77
2023/06/30 00:09:48;;;;;;;11.50;10.30;;;24.30;93.20;;;;;;5029488;28;20543;-77
2023/06/30 00:12:15;;;;;;;13.30;10.40;;;24.30;93.20;;;;;;5026135;28;20502;-77
2023/06/30 00:14:43;;;;;;;13.57;10.87;;;24.30;93.20;;;;;;5024563;28;20769;-77
2023/06/30 00:17:09;;;;;;;11.47;10.27;;;24.30;93.20;;;;;;5026183;28;20472;-77
2023/06/30 00:19:36;;;;;;;14.50;11.43;;;24.30;93.10;;;;;;5021833;28;20473;-77
2023/06/30 00:22:03;;;;;;;12.20;10.93;;;24.30;93.10;;;;;;5022633;28;20850;-76
2023/06/30 00:24:30;;;;;;;11.90;10.43;;;24.30;93.10;;;;;;5024425;28;20542;-77
2023/06/30 00:26:57;;;;;;;12.97;10.60;;;24.30;93.20;;;;;;5024755;28;20450;-77
2023/06/30 00:29:23;;;;;;;12.23;11.00;;;24.30;93.10;;;;;;5022803;28;20469;-77
2023/06/30 00:31:52;;;;;;;11.60;10.50;;;24.30;93.10;;;;;;5023006;28;20802;-76
2023/06/30 00:34:18;;;;;;;11.83;10.63;;;24.30;93.10;;;;;;5019269;28;20458;-76
2023/06/30 00:36:45;;;;;;;12.40;10.83;;;24.30;93.10;;;;;;5020806;28;20953;-76
2023/06/30 00:39:12;;;;;;;10.63;9.53;;;24.30;93.20;;;;;;5019286;28;20458;-77
2023/06/30 00:41:39;;;;;;;11.07;9.87;;;24.20;93.10;;;;;;5016925;28;20451;-76
2023/06/30 00:44:06;;;;;;;13.60;11.10;;;24.30;93.10;;;;;;5016320;28;20551;-76
2023/06/30 00:46:33;;;;;;;11.77;10.50;;;24.30;93.20;;;;;;5016805;28;21318;-76
2023/06/30 00:49:02;;;;;;;10.67;9.57;;;24.30;93.10;;;;;;5019729;28;20954;-76
2023/06/30 00:51:29;;;;;;;11.80;10.60;;;24.30;93.10;;;;;;5015591;28;20493;-76
2023/06/30 00:53:56;;;;;;;11.30;10.20;;;24.30;93.10;;;;;;5022502;28;20625;-76
2023/06/30 00:56:23;;;;;;;11.23;10.10;;;24.30;93.10;;;;;;5021946;28;20458;-77
2023/06/30 00:58:50;;;;;;;10.40;9.30;;;24.30;93.20;;;;;;5020444;28;21480;-76
2023/06/30 01:01:25;;;;;;;10.30;9.20;;;24.30;93.10;;;;;;5020679;28;20455;-77
2023/06/30 01:03:56;;;;;;;13.97;10.30;;;24.30;93.10;;;;;;5023237;28;20487;-77
2023/06/30 01:06:31;;;;;;;9.60;8.70;;;24.30;93.10;;;;;;5023000;28;20471;-77
2023/06/30 01:09:02;;;;;;;11.30;10.10;;;24.20;93.10;;;;;;5021154;28;20450;-78
2023/06/30 01:11:29;;;;;;;10.80;9.70;;;24.20;93.00;;;;;;5020552;28;20656;-77
2023/06/30 01:13:58;;;;;;;11.37;9.00;;;24.30;93.10;;;;;;5017133;28;20458;-77
2023/06/30 01:16:28;;;;;;;11.80;10.17;;;24.20;93.10;;;;;;5016203;28;20463;-77
2023/06/30 01:18:58;;;;;;;11.90;10.67;;;24.30;93.20;;;;;;5018737;28;20455;-76
2023/06/30 01:21:28;;;;;;;13.33;11.07;;;24.20;93.10;;;;;;5018934;28;20826;-76
2023/06/30 01:24:02;;;;;;;12.20;10.90;;;24.20;93.00;;;;;;5017104;28;20472;-76
2023/06/30 01:26:30;;;;;;;10.33;9.33;;;24.30;93.10;;;;;;5015471;28;20477;-77
2023/06/30 01:28:58;;;;;;;13.87;10.93;;;24.20;93.00;;;;;;4997725;28;20487;-77
2023/06/30 01:31:25;;;;;;;10.53;9.50;;;24.30;93.10;;;;;;5020689;28;20819;-77
2023/06/30 01:33:51;;;;;;;11.43;10.23;;;24.30;93.10;;;;;;5019887;28;20490;-76
2023/06/30 01:36:18;;;;;;;12.03;10.17;;;24.20;93.00;;;;;;5015455;28;20469;-77
2023/06/30 01:38:47;;;;;;;10.30;9.00;;;24.20;93.00;;;;;;5021131;28;20461;-77
2023/06/30 01:41:16;;;;;;;12.80;10.13;;;24.20;93.00;;;;;;5015965;28;20454;-79
2023/06/30 01:43:43;;;;;;;10.70;9.47;;;24.20;93.20;;;;;;5021190;28;20466;-77
2023/06/30 01:46:10;;;;;;;11.37;10.23;;;24.20;93.00;;;;;;5019436;28;20469;-78
2023/06/30 01:48:38;;;;;;;11.00;9.07;;;24.20;93.10;;;;;;5020013;28;20462;-77
2023/06/30 01:51:06;;;;;;;11.23;9.70;;;24.20;93.10;;;;;;5020393;28;21044;-76
2023/06/30 01:53:33;;;;;;;10.53;9.10;;;24.20;93.00;;;;;;5019412;28;20493;-78
2023/06/30 01:56:01;;;;;;;11.10;9.50;;;24.20;93.10;;;;;;5028113;28;20983;-78
2023/06/30 01:58:28;;;;;;;11.07;9.50;;;24.20;93.00;;;;;;5022432;28;20487;-78
2023/06/30 02:00:55;;;;;;;10.60;8.83;;;24.20;93.00;;;;;;5019453;28;20845;-78
2023/06/30 02:03:21;;;;;;;9.80;8.37;;;24.20;93.00;;;;;;5020728;28;20463;-77
2023/06/30 02:05:48;;;;;;;9.47;8.47;;;24.20;93.00;;;;;;5019728;28;20465;-77
2023/06/30 02:08:15;;;;;;;10.20;8.73;;;24.20;93.00;;;;;;5019374;28;20472;-77
2023/06/30 02:10:42;;;;;;;10.77;8.97;;;24.20;93.00;;;;;;5016429;28;20477;-77
2023/06/30 02:13:10;;;;;;;12.83;9.83;;;24.20;93.00;;;;;;5023697;28;20435;-77
2023/06/30 02:15:36;;;;;;;10.23;8.93;;;24.20;93.00;;;;;;5014957;28;20457;-76
2023/06/30 02:18:04;;;;;;;9.77;8.77;;;24.20;93.00;;;;;;5017897;28;20734;-77
2023/06/30 02:20:30;;;;;;;10.37;9.37;;;24.20;93.00;;;;;;5018874;28;20974;-77
2023/06/30 02:22:57;;;;;;;10.03;8.93;;;24.20;92.90;;;;;;5021511;28;20829;-77
2023/06/30 02:25:24;;;;;;;10.40;9.30;;;24.20;93.00;;;;;;5029522;28;20458;-77
2023/06/30 02:27:52;;;;;;;9.17;8.30;;;24.10;92.90;;;;;;5028177;28;21222;-77
2023/06/30 02:30:20;;;;;;;9.43;8.43;;;24.20;92.90;;;;;;5029833;28;20516;-76
2023/06/30 02:32:47;;;;;;;10.13;9.13;;;24.20;92.90;;;;;;5027401;28;20489;-77
2023/06/30 02:35:14;;;;;;;10.13;8.83;;;24.20;92.90;;;;;;5027919;28;20465;-77
2023/06/30 02:37:41;;;;;;;9.80;7.60;;;24.20;93.00;;;;;;5028936;28;20462;-77
2023/06/30 02:40:09;;;;;;;9.57;7.80;;;24.20;93.00;;;;;;5029239;28;20476;-77
2023/06/30 02:42:36;;;;;;;9.80;7.77;;;24.20;92.90;;;;;;5030449;28;20450;-77
2023/06/30 02:45:03;;;;;;;9.73;8.73;;;24.20;92.90;;;;;;5029876;28;20473;-77
2023/06/30 02:47:32;;;;;;;9.57;8.03;;;24.20;92.90;;;;;;5029898;28;20913;-77
2023/06/30 02:49:58;;;;;;;9.73;8.23;;;24.20;92.90;;;;;;5028252;28;20466;-77
2023/06/30 02:52:25;;;;;;;8.20;7.40;;;24.20;92.90;;;;;;5031842;28;20495;-77
2023/06/30 02:54:52;;;;;;;11.87;8.63;;;24.10;92.80;;;;;;5020750;28;20466;-77
2023/06/30 02:57:20;;;;;;;9.60;8.60;;;24.10;92.80;;;;;;5025453;28;20488;-76
2023/06/30 02:59:47;;;;;;;9.13;8.13;;;24.20;92.90;;;;;;5030157;28;20996;-77
2023/06/30 03:02:13;;;;;;;9.50;8.50;;;24.20;92.90;;;;;;5022656;28;20465;-77
2023/06/30 03:04:41;;;;;;;10.70;8.97;;;24.20;92.90;;;;;;5021836;28;20466;-77
2023/06/30 03:07:10;;;;;;;9.43;8.43;;;24.20;92.90;;;;;;5021457;28;20450;-77
2023/06/30 03:09:36;;;;;;;8.27;7.33;;;24.10;92.90;;;;;;5023765;28;20970;-77
2023/06/30 03:12:04;;;;;;;9.33;8.23;;;24.10;92.80;;;;;;5024267;28;20481;-77
2023/06/30 03:14:31;;;;;;;9.43;8.40;;;24.10;92.90;;;;;;5024272;28;21003;-77
2023/06/30 03:16:57;;;;;;;8.70;7.07;;;24.20;92.90;;;;;;5022150;28;20458;-77
2023/06/30 03:19:24;;;;;;;9.93;8.93;;;24.10;92.90;;;;;;5023510;28;20515;-77
2023/06/30 03:21:52;;;;;;;8.40;7.60;;;24.10;92.90;;;;;;5026213;28;20458;-77
2023/06/30 03:24:19;;;;;;;8.90;7.57;;;24.10;92.80;;;;;;5025634;28;20559;-77
2023/06/30 03:26:46;;;;;;;8.27;7.50;;;24.10;92.80;;;;;;5023096;28;20782;-76
2023/06/30 03:29:13;;;;;;;8.83;8.00;;;24.10;92.80;;;;;;5023433;28;21013;-77
2023/06/30 03:31:40;;;;;;;9.53;8.63;;;24.10;92.80;;;;;;5019683;28;20485;-77
2023/06/30 03:34:06;;;;;;;7.90;7.10;;;24.20;92.90;;;;;;5030900;28;20466;-77
2023/06/30 03:36:33;;;;;;;9.53;7.73;;;24.10;93.10;;;;;;5028825;28;20466;-77
2023/06/30 03:39:01;;;;;;;8.63;7.67;;;24.10;92.80;;;;;;5020244;28;20454;-77
2023/06/30 03:41:28;;;;;;;8.43;7.53;;;24.10;92.80;;;;;;5016017;28;20461;-76
2023/06/30 03:43:55;;;;;;;9.10;7.67;;;24.20;92.90;;;;;;5013862;28;20462;-78
2023/06/30 03:46:22;;;;;;;8.23;7.43;;;24.10;92.80;;;;;;5015343;28;20462;-77
2023/06/30 03:48:48;;;;;;;8.03;7.10;;;24.10;92.80;;;;;;5016497;28;20458;-77
2023/06/30 03:51:15;;;;;;;8.60;7.70;;;24.10;92.80;;;;;;5014599;28;21293;-77
2023/06/30 03:53:43;;;;;;;9.00;7.50;;;24.10;92.80;;;;;;5019281;28;20463;-77
2023/06/30 03:56:11;;;;;;;8.47;7.00;;;24.10;92.80;;;;;;5019296;28;20466;-77
2023/06/30 03:58:39;;;;;;;8.87;7.93;;;24.10;92.80;;;;;;5018107;28;21172;-77
2023/06/30 04:01:07;;;;;;;8.97;8.07;;;24.10;92.80;;;;;;5016227;28;20764;-76
2023/06/30 04:03:34;;;;;;;10.73;7.83;;;24.10;92.80;;;;;;5011933;28;20469;-77
2023/06/30 04:06:01;;;;;;;8.57;7.77;;;24.10;92.80;;;;;;5018101;28;20462;-77
2023/06/30 04:08:28;;;;;;;8.60;7.77;;;24.10;92.80;;;;;;5022146;28;20447;-77
2023/06/30 04:10:56;;;;;;;10.00;7.87;;;24.10;92.80;;;;;;5018700;28;20482;-77
2023/06/30 04:13:24;;;;;;;8.80;7.90;;;24.10;92.80;;;;;;5021285;28;20554;-77
2023/06/30 04:15:51;;;;;;;7.23;6.50;;;24.10;92.80;;;;;;5018192;28;20458;-77
2023/06/30 04:18:17;;;;;;;7.60;6.80;;;24.10;92.80;;;;;;5019873;28;21503;-77
2023/06/30 04:20:47;;;;;;;10.63;8.03;;;24.10;92.80;;;;;;5022727;28;20458;-78
2023/06/30 04:23:14;;;;;;;8.43;7.53;;;24.10;92.80;;;;;;5020501;28;20732;-76
2023/06/30 04:25:40;;;;;;;8.57;7.53;;;24.00;93.10;;;;;;5026526;28;20455;-77
2023/06/30 04:28:07;;;;;;;8.10;6.60;;;24.10;92.80;;;;;;5020680;28;20462;-77
2023/06/30 04:30:35;;;;;;;7.80;7.00;;;24.10;92.80;;;;;;5018420;28;20458;-77
2023/06/30 04:33:02;;;;;;;7.83;7.03;;;24.10;92.80;;;;;;5021949;28;20482;-76
2023/06/30 04:35:29;;;;;;;8.10;6.63;;;24.00;92.80;;;;;;5025018;28;21108;-77
2023/06/30 04:37:56;;;;;;;9.63;7.60;;;24.00;92.70;;;;;;5021230;28;20465;-76
2023/06/30 04:40:22;;;;;;;7.50;6.80;;;24.10;92.80;;;;;;5021022;28;20473;-77
2023/06/30 04:42:49;;;;;;;8.13;7.30;;;24.00;92.70;;;;;;5021040;28;20458;-76
2023/06/30 04:45:16;;;;;;;8.40;7.33;;;24.00;92.80;;;;;;5024068;28;20521;-77
2023/06/30 04:47:44;;;;;;;8.20;7.40;;;24.00;92.70;;;;;;5020566;28;20466;-76
2023/06/30 04:50:11;;;;;;;7.50;6.80;;;24.00;92.70;;;;;;5021245;28;20482;-75
2023/06/30 04:52:38;;;;;;;7.63;6.83;;;24.10;92.80;;;;;;5019262;28;20481;-76
2023/06/30 04:55:05;;;;;;;7.33;6.60;;;24.10;92.70;;;;;;5024792;28;20466;-76
2023/06/30 04:57:32;;;;;;;7.80;6.87;;;24.10;92.70;;;;;;5019410;28;20497;-76
2023/06/30 04:59:59;;;;;;;6.80;6.13;;;24.10;92.80;;;;;;5020086;28;20664;-76
2023/06/30 05:02:26;;;;;;;7.70;6.90;;;24.00;92.60;;;;;;5019740;28;20478;-76
2023/06/30 05:04:54;;;;;;;5.73;5.17;;;24.00;92.60;;;;;;5024564;28;20488;-76
2023/06/30 05:07:21;;;;;;;8.00;7.30;;;24.10;92.70;;;;;;5020232;28;20461;-76
2023/06/30 05:09:48;;;;;;;6.43;5.83;;;24.00;92.60;;;;;;5019754;28;20545;-76
2023/06/30 05:12:15;;;;;;;8.30;6.47;;;24.00;92.70;;;;;;5018761;28;21098;-77
2023/06/30 05:14:42;;;;;;;7.03;6.10;;;24.10;92.80;;;;;;5022311;28;20472;-76
2023/06/30 05:17:08;;;;;;;7.70;6.63;;;24.00;92.70;;;;;;5017541;28;21500;-76
2023/06/30 05:19:35;;;;;;;7.63;6.47;;;24.00;92.80;;;;;;5014609;28;20872;-76
2023/06/30 05:22:04;;;;;;;8.20;7.30;;;24.00;92.90;;;;;;5020886;28;20545;-76
2023/06/30 05:24:31;;;;;;;6.83;6.13;;;24.10;93.00;;;;;;5018222;28;20454;-77
2023/06/30 05:26:57;;;;;;;6.57;5.50;;;24.00;93.00;;;;;;5021838;28;20473;-76
2023/06/30 05:29:24;;;;;;;7.80;6.40;;;24.10;93.10;;;;;;5019619;28;20982;-76
2023/06/30 05:31:51;;;;;;;7.03;6.00;;;24.00;93.10;;;;;;5021113;28;20556;-76
2023/06/30 05:34:18;;;;;;;6.30;5.67;;;24.00;93.50;;;;;;5026429;28;20975;-76
2023/06/30 05:36:45;;;;;;;6.30;5.70;;;24.10;93.10;;;;;;5023487;28;20465;-77
2023/06/30 05:39:14;;;;;;;7.13;6.43;;;24.10;93.00;;;;;;5019807;28;20461;-77
2023/06/30 05:41:41;;;;;;;5.20;4.70;;;24.00;93.00;;;;;;5019496;28;20515;-78
2023/06/30 05:44:08;;;;;;;6.70;3.70;;;24.10;93.10;;;;;;5021499;28;20458;-77
2023/06/30 05:46:37;;;;;;;4.63;3.00;;;24.00;93.30;;;;;;5021422;28;20463;-77
2023/06/30 05:49:05;;;;;;;7.20;3.37;;;24.00;93.30;;;;;;5022297;28;20463;-78
2023/06/30 05:51:33;;;;;;;8.87;3.40;;;23.90;93.20;;;;;;5021858;28;20490;-77
2023/06/30 05:54:00;;;;;;;3.30;2.60;;;23.90;93.10;;;;;;5024840;28;20977;-76
2023/06/30 05:56:28;;;;;;;6.47;3.10;;;23.90;93.10;;;;;;5021311;28;20462;-77
2023/06/30 05:58:56;;;;;;;6.90;3.30;;;23.90;93.00;;;;;;5026059;28;21916;-78
2023/06/30 06:01:23;;;;;;;3.90;3.40;;;23.90;93.00;;;;;;5021069;28;20462;-77
2023/06/30 06:03:49;;;;;;;5.60;3.10;;;23.90;92.90;;;;;;5024396;28;20975;-77
2023/06/30 06:06:16;;;;;;;8.60;2.73;;;23.90;92.90;;;;;;5021730;28;20458;-79
2023/06/30 06:08:46;;;;;;;5.67;3.27;;;23.90;92.90;;;;;;5029472;28;20458;-79
2023/06/30 06:11:14;;;;;;;3.33;2.40;;;23.90;92.90;;;;;;5024481;28;20525;-79
2023/06/30 06:13:42;;;;;;;4.30;3.10;;;23.90;92.80;;;;;;5023606;28;20468;-80
2023/06/30 06:16:09;;;;;;;6.17;3.53;;;23.90;92.80;;;;;;5027415;28;20465;-79
2023/06/30 06:18:36;;;;;;;4.00;2.90;;;23.90;92.80;;;;;;5026860;28;20976;-79
2023/06/30 06:21:04;;;;;;;6.10;3.47;;;24.00;92.80;;;;;;5023710;28;20459;-80
2023/06/30 06:23:31;;;;;;;4.20;3.13;;;24.00;92.80;;;;;;5028477;28;21176;-79
2023/06/30 06:25:58;;;;;;;4.13;3.13;;;24.00;92.80;;;;;;5028469;28;20537;-78
2023/06/30 06:28:25;;;;;;;4.70;2.90;;;24.00;92.80;;;;;;5026478;28;20474;-79
2023/06/30 06:30:53;;;;;;;5.67;2.70;;;24.00;92.80;;;;;;5026156;28;20469;-80
2023/06/30 06:33:20;;;;;;;5.57;3.30;;;24.00;92.80;;;;;;5027947;28;20483;-78
2023/06/30 06:35:49;;;;;;;4.33;3.13;;;24.00;92.90;;;;;;5027776;28;21206;-83
2023/06/30 06:38:17;;;;;;;3.90;2.83;;;24.00;92.80;;;;;;5026067;28;20536;-80
2023/06/30 06:40:44;;;;;;;5.50;3.30;;;24.00;93.00;;;;;;5022643;28;21046;-77
2023/06/30 06:43:11;;;;;;;4.40;2.90;;;24.00;92.60;;;;;;5025954;28;20828;-78
2023/06/30 06:45:38;;;;;;;5.33;2.60;;;24.00;92.90;;;;;;5022428;28;20472;-76
2023/06/30 06:48:32;;;;;;;7.10;2.90;;;24.00;93.00;;;;;;5025172;28;21044;-77
2023/06/30 06:51:01;;;;;;;9.10;3.17;;;24.00;93.30;;;;;;4974715;28;20469;-77
2023/06/30 06:53:29;;;;;;;3.47;2.03;;;24.00;92.90;;;;;;5022625;28;20485;-77
2023/06/30 06:55:57;;;;;;;4.97;3.00;;;24.00;92.80;;;;;;5015347;28;20454;-77
2023/06/30 06:58:25;;;;;;;3.53;3.00;;;24.00;92.80;;;;;;5023366;28;20484;-77
2023/06/30 07:00:53;;;;;;;4.10;2.60;;;24.00;92.80;;;;;;5025870;28;20458;-77
2023/06/30 07:03:20;;;;;;;4.77;2.73;;;24.00;92.90;;;;;;5028235;28;20838;-76
2023/06/30 07:05:48;;;;;;;4.33;3.00;;;24.00;92.90;;;;;;5030676;28;20539;-77
2023/06/30 07:08:16;;;;;;;6.20;3.03;;;24.00;93.00;;;;;;5031185;28;20474;-76
2023/06/30 07:10:43;;;;;;;7.13;3.63;;;24.00;93.00;;;;;;5029606;28;20557;-77
2023/06/30 07:13:10;;;;;;;7.60;2.70;;;24.00;93.00;;;;;;5031756;28;20498;-77
2023/06/30 07:15:37;;;;;;;3.37;2.50;;;24.00;93.10;;;;;;5026282;28;20472;-76
2023/06/30 07:18:04;;;;;;;9.20;2.80;;;24.00;93.10;;;;;;5029767;28;20545;-77
2023/06/30 07:20:31;;;;;;;4.33;2.40;;;24.00;93.00;;;;;;5024872;28;20849;-76
2023/06/30 07:22:59;;;;;;;3.33;2.80;;;24.00;93.00;;;;;;5030057;28;20453;-76
2023/06/30 07:25:26;;;;;;;3.73;2.60;;;24.00;93.00;;;;;;5030512;28;20877;-76
2023/06/30 07:27:54;;;;;;;2.80;2.43;;;24.00;93.00;;;;;;5030007;28;20457;-76
2023/06/30 07:30:22;;;;;;;3.07;2.30;;;24.00;93.00;;;;;;5033682;28;20540;-76
2023/06/30 07:32:49;;;;;;;3.30;2.47;;;24.00;93.00;;;;;;5034700;28;20743;-76
2023/06/30 07:35:17;;;;;;;3.17;2.83;;;24.00;93.10;;;;;;5032342;28;20469;-76
2023/06/30 07:37:44;;;;;;;5.60;2.90;;;24.00;93.00;;;;;;5032412;28;20458;-76
2023/06/30 07:40:12;;;;;;;4.77;2.17;;;24.10;93.00;;;;;;5034229;28;21089;-76
2023/06/30 07:42:39;;;;;;;3.50;2.90;;;24.00;93.00;;;;;;5033574;28;20441;-77
2023/06/30 07:45:09;;;;;;;3.50;2.53;;;24.00;93.10;;;;;;5031059;28;20469;-77
2023/06/30 07:47:36;;;;;;;3.67;2.60;;;24.00;93.10;;;;;;5030109;28;20512;-77
2023/06/30 07:50:09;;;;;;;2.43;2.23;;;24.10;93.10;;;;;;5031485;28;20984;-77
2023/06/30 07:52:36;;;;;;;3.50;2.83;;;24.00;93.00;;;;;;5033549;28;20522;-77
2023/06/30 07:55:03;;;;;;;2.40;2.20;;;24.10;93.10;;;;;;5034473;28;20431;-77
2023/06/30 07:57:31;;;;;;;3.97;2.70;;;24.00;93.00;;;;;;5030693;28;21024;-77
2023/06/30 07:59:58;;;;;;;4.17;2.30;;;24.10;93.00;;;;;;5026068;28;20457;-77
2023/06/30 08:02:27;;;;;;;2.70;2.37;;;24.10;93.00;;;;;;5029245;28;21499;-77
2023/06/30 08:04:53;;;;;;;2.97;2.20;;;24.10;93.10;;;;;;5028181;28;20554;-77
2023/06/30 08:07:20;;;;;;;4.67;2.83;;;24.10;93.10;;;;;;5028642;28;20485;-77
2023/06/30 08:09:47;;;;;;;3.90;2.90;;;24.10;93.00;;;;;;5029584;28;20979;-78
2023/06/30 08:12:14;;;;;;;3.90;3.00;;;24.10;93.00;;;;;;5034199;28;20490;-77
2023/06/30 08:14:42;;;;;;;2.90;2.60;;;24.10;93.00;;;;;;5031845;28;21339;-77
2023/06/30 08:17:09;;;;;;;3.33;2.40;;;24.10;93.00;;;;;;5036482;28;20507;-77
2023/06/30 08:19:41;;;;;;;5.07;2.00;;;24.10;93.00;;;;;;5026519;28;20652;-77
2023/06/30 08:22:08;;;;;;;3.63;2.60;;;24.10;93.00;;;;;;5030435;28;20928;-77
2023/06/30 08:24:34;;;;;;;3.90;3.03;;;24.10;93.00;;;;;;5027470;28;20496;-78
2023/06/30 08:27:01;;;;;;;3.20;2.50;;;24.10;93.00;;;;;;5029183;28;20837;-77
2023/06/30 08:29:28;;;;;;;3.80;2.53;;;24.10;92.90;;;;;;5023995;28;20826;-77
2023/06/30 08:31:56;;;;;;;2.63;2.10;;;24.10;93.00;;;;;;5026547;28;20974;-79
2023/06/30 08:34:25;;;;;;;2.40;2.20;;;24.10;93.00;;;;;;5028004;28;20461;-78
2023/06/30 08:36:54;;;;;;;3.30;2.50;;;24.20;92.90;;;;;;5025007;28;21057;-76
2023/06/30 08:39:21;;;;;;;2.83;2.00;;;24.20;92.90;;;;;;5030198;28;20465;-76
2023/06/30 08:41:50;;;;;;;4.67;2.07;;;24.10;92.60;;;;;;5025267;28;20454;-77
2023/06/30 08:44:19;;;;;;;2.33;1.87;;;24.20;91.70;;;;;;5019973;28;20517;-76
2023/06/30 08:46:46;;;;;;;4.17;1.93;;;24.10;91.40;;;;;;5025448;28;20838;-75
2023/06/30 08:49:14;;;;;;;4.13;1.97;;;24.10;91.10;;;;;;5028355;28;20507;-75
2023/06/30 08:51:41;;;;;;;2.50;1.73;;;24.00;89.90;;;;;;5025985;28;20950;-76
2023/06/30 08:54:09;;;;;;;4.37;1.50;;;24.00;90.00;;;;;;5027789;28;20475;-76
2023/06/30 08:56:38;;;;;;;3.67;1.90;;;24.00;89.50;;;;;;5020534;28;20589;-76
2023/06/30 08:59:05;;;;;;;3.70;1.93;;;24.00;89.70;;;;;;5022341;28;20456;-77
2023/06/30 09:01:33;;;;;;;3.93;1.93;;;24.00;89.80;;;;;;5021114;28;20469;-76
2023/06/30 09:04:01;;;;;;;3.00;1.63;;;24.00;90.40;;;;;;5026615;28;20689;-77
2023/06/30 09:06:29;;;;;;;3.40;2.00;;;24.10;90.10;;;;;;5025420;28;20464;-76
2023/06/30 09:09:00;;;;;;;2.30;1.50;;;24.10;90.30;;;;;;5026353;28;20819;-76
2023/06/30 09:11:30;;;;;;;2.30;1.60;;;24.00;90.30;;;;;;5026068;28;21646;-76
2023/06/30 09:14:00;;;;;;;7.67;2.10;;;24.10;90.50;;;;;;5027427;28;20474;-76
2023/06/30 09:16:27;;;;;;;2.27;2.07;;;24.00;90.50;;;;;;5028697;28;20450;-76
2023/06/30 09:18:54;;;;;;;3.40;2.03;;;24.00;90.60;;;;;;5028014;28;20453;-77
2023/06/30 09:21:21;;;;;;;3.43;1.60;;;24.10;90.70;;;;;;5026734;28;20475;-76
2023/06/30 09:23:50;;;;;;;3.00;1.90;;;24.10;90.80;;;;;;5026271;28;20534;-76
2023/06/30 09:26:18;;;;;;;4.27;1.80;;;24.10;90.80;;;;;;5022243;28;20463;-76
2023/06/30 09:28:46;;;;;;;3.03;2.20;;;24.10;90.90;;;;;;5024832;28;20905;-76
2023/06/30 09:31:13;;;;;;;4.13;2.00;;;24.10;90.90;;;;;;5026990;28;20980;-76
2023/06/30 09:33:40;;;;;;;3.70;2.00;;;24.10;90.90;;;;;;5030710;28;20755;-75
2023/06/30 09:36:08;;;;;;;2.20;2.00;;;24.10;91.00;;;;;;5026543;28;20545;-76
2023/06/30 09:38:35;;;;;;;3.40;1.60;;;24.10;91.00;;;;;;5033524;28;21057;-75
2023/06/30 09:41:06;;;;;;;2.80;2.37;;;24.10;91.00;;;;;;5031224;28;20916;-76
2023/06/30 09:43:34;;;;;;;2.67;2.27;;;24.10;91.10;;;;;;5031937;28;20465;-76
2023/06/30 09:46:02;;;;;;;3.03;1.77;;;24.10;91.10;;;;;;5032065;28;20466;-76
2023/06/30 09:48:30;;;;;;;2.20;1.53;;;24.10;91.10;;;;;;5031911;28;20455;-76
2023/06/30 09:50:57;;;;;;;2.07;1.87;;;24.10;91.10;;;;;;5029735;28;20988;-77
2023/06/30 09:53:24;;;;;;;3.83;2.10;;;24.10;91.10;;;;;;5032556;28;20496;-76
2023/06/30 09:55:52;;;;;;;3.60;2.27;;;24.10;91.10;;;;;;5031865;28;20456;-76
2023/06/30 09:58:21;;;;;;;3.37;1.73;;;24.10;91.10;;;;;;5030412;28;20510;-78
2023/06/30 10:00:51;;;;;;;1.63;1.50;;;24.10;91.20;;;;;;5032418;28;21204;-76
2023/06/30 10:03:18;;;;;;;2.07;1.50;;;24.10;91.20;;;;;;5032079;28;20799;-77
2023/06/30 10:05:47;;;;;;;4.60;2.00;;;24.10;91.20;;;;;;5030766;28;20761;-76
2023/06/30 10:08:15;;;;;;;2.10;1.37;;;24.10;91.20;;;;;;5030116;28;20465;-76
2023/06/30 10:10:42;;;;;;;2.57;1.90;;;24.10;91.20;;;;;;5030711;28;20458;-76
2023/06/30 10:13:11;;;;;;;2.67;1.73;;;24.10;91.20;;;;;;5028661;28;20486;-75
2023/06/30 10:15:39;;;;;;;3.87;1.60;;;24.10;91.20;;;;;;5032312;28;20449;-76
2023/06/30 10:18:10;;;;;;;5.53;1.77;;;24.20;91.30;;;;;;5033664;28;20458;-76
2023/06/30 10:20:38;;;;;;;3.43;1.63;;;24.10;91.20;;;;;;5031849;28;21026;-78
2023/06/30 10:23:06;;;;;;;2.17;1.53;;;24.10;91.20;;;;;;5031279;28;20458;-77
2023/06/30 10:25:35;;;;;;;3.50;2.30;;;24.20;91.20;;;;;;5031134;28;20462;-77
2023/06/30 10:28:03;;;;;;;1.87;1.37;;;24.20;91.30;;;;;;5031533;28;21052;-73
2023/06/30 10:30:30;;;;;;;2.50;1.80;;;24.10;91.60;;;;;;5030161;28;20463;-76
2023/06/30 10:33:01;;;;;;;1.87;1.40;;;24.10;90.40;;;;;;5031954;28;21484;-76
2023/06/30 10:35:29;;;;;;;1.47;1.37;;;24.10;88.70;;;;;;5031859;28;20474;-76
2023/06/30 10:37:57;;;;;;;1.70;1.17;;;24.10;86.40;;;;;;5033934;28;20462;-75
2023/06/30 10:40:25;;;;;;;2.10;1.40;;;24.00;85.80;;;;;;5036254;28;20470;-75
2023/06/30 10:42:53;;;;;;;4.37;1.50;;;24.00;85.40;;;;;;5036392;28;20523;-76
2023/06/30 10:45:20;;;;;;;2.73;1.30;;;24.00;84.80;;;;;;5030906;28;20550;-76
2023/06/30 10:47:51;;;;;;;2.80;1.37;;;24.00;85.00;;;;;;5033107;28;20509;-76
2023/06/30 10:50:19;;;;;;;3.17;1.60;;;24.00;86.30;;;;;;5030918;28;20495;-75
2023/06/30 10:52:50;;;;;;;2.20;1.53;;;24.00;86.40;;;;;;5030404;28;20466;-77
2023/06/30 10:55:20;;;;;;;2.83;1.40;;;24.00;85.90;;;;;;5031773;28;20969;-76
2023/06/30 10:57:51;;;;;;;1.50;1.40;;;24.00;85.20;;;;;;5025468;28;20490;-76
2023/06/30 11:00:22;;;;;;;4.30;1.40;;;24.00;85.30;;;;;;5026695;28;20454;-75
2023/06/30 11:02:50;;;;;;;1.77;1.53;;;24.00;84.00;;;;;;5026112;28;21663;-75
2023/06/30 11:05:26;;;;;;;2.00;1.33;;;24.00;83.80;;;;;;5028536;28;20466;-75
2023/06/30 11:07:54;;;;;;;1.80;1.30;;;24.00;83.00;;;;;;5027067;28;20845;-76
2023/06/30 11:10:36;;;;;;;3.10;2.80;;;24.00;83.70;;;;;;5031010;28;20452;-75
2023/06/30 11:13:05;;;;;;;2.43;1.43;;;24.00;84.00;;;;;;5029266;28;20874;-78
2023/06/30 11:15:37;;;;;;;2.20;1.53;;;24.00;84.80;;;;;;5025441;28;20965;-76
2023/06/30 11:18:06;;;;;;;1.30;1.00;;;24.00;85.60;;;;;;5025864;28;20459;-75
2023/06/30 11:20:34;;;;;;;1.73;1.37;;;24.00;85.00;;;;;;5023700;28;20473;-77
2023/06/30 11:23:02;;;;;;;3.87;1.20;;;24.00;85.10;;;;;;5031964;28;20541;-76
2023/06/30 11:25:30;;;;;;;1.60;1.03;;;24.00;84.80;;;;;;5028929;28;20473;-76
2023/06/30 11:27:57;;;;;;;2.80;1.30;;;24.00;84.10;;;;;;5030152;28;20466;-76
2023/06/30 11:30:24;;;;;;;1.97;1.10;;;24.00;83.80;;;;;;5023892;28;20463;-76
2023/06/30 11:32:57;;;;;;;1.60;1.13;;;24.00;84.60;;;;;;5027631;28;20454;-76
2023/06/30 11:35:25;;;;;;;2.43;1.50;;;24.00;84.90;;;;;;5027064;28;20972;-76
2023/06/30 11:37:54;;;;;;;2.97;1.60;;;24.00;85.20;;;;;;5027659;28;20462;-76
2023/06/30 11:40:21;;;;;;;1.80;1.10;;;24.00;85.30;;;;;;5027526;28;20473;-77
2023/06/30 11:42:48;;;;;;;2.60;1.70;;;24.00;85.20;;;;;;5025883;28;20466;-75
2023/06/30 11:45:19;;;;;;;2.33;1.40;;;24.00;86.00;;;;;;5028277;28;20981;-75
2023/06/30 11:47:48;;;;;;;1.97;1.30;;;24.10;85.40;;;;;;5027141;28;20462;-76
2023/06/30 11:50:15;;;;;;;2.00;1.40;;;24.00;85.20;;;;;;5026844;28;20468;-76
2023/06/30 11:52:42;;;;;;;1.30;1.20;;;24.10;85.30;;;;;;5025859;28;20578;-76
2023/06/30 11:55:12;;;;;;;2.80;1.23;;;24.00;85.40;;;;;;5028579;28;21012;-75
2023/06/30 11:57:40;;;;;;;2.40;1.40;;;24.10;85.70;;;;;;5025746;28;20496;-75
2023/06/30 12:00:09;;;;;;;1.30;1.20;;;24.00;85.50;;;;;;5025233;28;20947;-76
2023/06/30 12:02:36;;;;;;;1.73;1.23;;;24.00;85.50;;;;;;5026484;28;20470;-77
2023/06/30 12:05:10;;;;;;;1.67;1.30;;;24.00;85.50;;;;;;5020680;28;20485;-76
2023/06/30 12:07:38;;;;;;;2.40;1.53;;;24.00;85.40;;;;;;5020320;28;20458;-80
2023/06/30 12:10:05;;;;;;;2.63;1.10;;;24.00;85.80;;;;;;5026062;28;20462;-78
2023/06/30 12:12:34;;;;;;;3.10;1.23;;;24.10;86.10;;;;;;5025629;28;20458;-77
2023/06/30 12:15:05;;;;;;;1.23;1.13;;;24.10;85.80;;;;;;5027615;28;20477;-79
2023/06/30 12:17:36;;;;;;;2.70;1.20;;;24.10;85.80;;;;;;5028971;28;20973;-77
2023/06/30 12:20:03;;;;;;;2.20;1.10;;;24.10;85.80;;;;;;5028066;28;20470;-78
2023/06/30 12:22:30;;;;;;;2.17;1.37;;;24.10;86.00;;;;;;5024181;28;20467;-80
2023/06/30 12:24:57;;;;;;;2.53;1.40;;;24.10;86.10;;;;;;5026809;28;20466;-79
2023/06/30 12:27:27;;;;;;;1.97;1.20;;;24.10;86.20;;;;;;5024885;28;20854;-82
2023/06/30 12:29:55;;;;;;;3.20;1.10;;;24.10;86.30;;;;;;5027360;28;20466;-81
2023/06/30 12:32:27;;;;;;;2.47;1.40;;;24.20;85.80;;;;;;5024773;28;21084;-79
2023/06/30 12:35:00;;;;;;;1.47;1.00;;;24.20;86.00;;;;;;5026294;28;20486;-81
2023/06/30 12:37:29;;;;;;;4.50;1.50;;;24.20;86.40;;;;;;5024216;28;20476;-79
2023/06/30 12:39:59;;;;;;;5.83;1.53;;;24.20;86.30;;;;;;5026120;28;20501;-81
2023/06/30 12:42:29;;;;;;;1.43;1.17;;;24.20;85.60;;;;;;5024058;28;20460;-81
2023/06/30 12:44:57;;;;;;;3.27;1.23;;;24.30;83.20;;;;;;5025223;28;21204;-82
2023/06/30 12:47:24;;;;;;;3.07;1.67;;;24.20;81.10;;;;;;5025726;28;20459;-80